Time;durP1;ratioP1;P1;durP2;ratioP2;P2;SDS_P1;SDS_P2;PMS_P1;PMS_P2;Temp;Humidity;BMP_temperature;BMP_pressure;BME280_temperature;BME280_humidity;BME280_pressure;Samples;Min_cycle;Max_cycle;Signal;HPM_P1;HPM_P2
2021/12/15 00:00:26;;;;;;;24.55;13.27;;;6.90;99.90;;;;;;5046360;28;20029;-67
2021/12/15 00:02:53;;;;;;;24.67;15.20;;;6.80;99.90;;;;;;5030441;28;20025;-59
2021/12/15 00:05:23;;;;;;;24.00;15.10;;;6.90;99.90;;;;;;5030040;28;20564;-61
2021/12/15 00:07:52;;;;;;;20.87;13.70;;;6.80;99.90;;;;;;5031685;28;20080;-62
2021/12/15 00:10:20;;;;;;;26.30;15.38;;;6.90;99.90;;;;;;5031111;28;20029;-66
2021/12/15 00:12:45;;;;;;;25.20;15.20;;;6.80;99.90;;;;;;5030882;28;20029;-59
2021/12/15 00:15:35;;;;;;;23.67;14.27;;;6.80;99.90;;;;;;5035405;28;20028;-61
2021/12/15 00:18:01;;;;;;;22.92;14.98;;;6.90;99.90;;;;;;5035192;28;20393;-67
2021/12/15 00:20:28;;;;;;;22.23;14.23;;;6.90;99.90;;;;;;5033604;28;20030;-59
2021/12/15 00:22:54;;;;;;;26.17;15.07;;;6.90;99.90;;;;;;5035396;28;20018;-58
2021/12/15 00:25:25;;;;;;;26.13;14.02;;;7.00;99.90;;;;;;5033489;28;20042;-60
2021/12/15 00:27:52;;;;;;;24.13;14.73;;;7.00;99.90;;;;;;5035350;28;20033;-56
2021/12/15 00:30:18;;;;;;;23.02;14.20;;;7.00;99.90;;;;;;5034794;28;20599;-59
2021/12/15 00:32:44;;;;;;;21.42;13.82;;;7.10;99.90;;;;;;5034900;28;20037;-54
2021/12/15 00:35:10;;;;;;;21.73;14.20;;;7.00;99.90;;;;;;5034724;28;20029;-55
2021/12/15 00:37:35;;;;;;;26.58;15.70;;;7.00;99.90;;;;;;5034437;28;20026;-54
2021/12/15 00:40:04;;;;;;;24.70;15.38;;;7.00;99.90;;;;;;5033653;28;20060;-64
2021/12/15 00:42:30;;;;;;;21.58;14.43;;;7.00;99.90;;;;;;5034456;28;20052;-57
2021/12/15 00:44:56;;;;;;;24.20;13.80;;;7.10;99.90;;;;;;5035062;28;20471;-60
2021/12/15 00:47:22;;;;;;;25.30;15.07;;;7.10;99.90;;;;;;5034236;28;20036;-65
2021/12/15 00:49:47;;;;;;;25.05;13.93;;;7.10;99.90;;;;;;5034613;28;20461;-60
2021/12/15 00:52:13;;;;;;;24.95;14.77;;;7.00;99.90;;;;;;5034737;28;20425;-70
2021/12/15 00:54:39;;;;;;;25.90;15.55;;;7.00;99.90;;;;;;5034174;28;20025;-60
2021/12/15 00:57:05;;;;;;;23.88;14.00;;;7.00;99.90;;;;;;5034791;28;20052;-59
2021/12/15 00:59:31;;;;;;;26.23;15.43;;;7.00;99.90;;;;;;5033691;28;20029;-57
2021/12/15 01:01:57;;;;;;;26.83;15.23;;;7.10;99.90;;;;;;5034765;28;20029;-66
2021/12/15 01:04:25;;;;;;;22.60;14.07;;;7.00;99.90;;;;;;5034234;28;20018;-60
2021/12/15 01:06:56;;;;;;;24.23;16.00;;;6.80;99.90;;;;;;5034630;28;20029;-61
2021/12/15 01:09:43;;;;;;;24.02;14.00;;;7.00;99.90;;;;;;5033853;28;20033;-60
2021/12/15 01:12:27;;;;;;;25.95;16.10;;;7.00;99.90;;;;;;5033361;28;20414;-62
2021/12/15 01:20:31;;;;;;;25.20;16.55;;;7.10;99.90;;;;;;5033919;28;20594;-64
2021/12/15 01:23:01;;;;;;;21.73;14.73;;;7.10;99.90;;;;;;5033085;28;20030;-56
2021/12/15 01:25:54;;;;;;;25.63;15.00;;;7.10;99.90;;;;;;5033817;28;20340;-61
2021/12/15 01:28:20;;;;;;;21.92;14.07;;;7.10;99.90;;;;;;5033416;28;20108;-67
2021/12/15 01:30:47;;;;;;;24.42;14.70;;;6.90;99.90;;;;;;5032954;28;20034;-63
2021/12/15 01:33:15;;;;;;;30.95;16.83;;;7.00;99.90;;;;;;5034000;28;20029;-64
2021/12/15 01:35:44;;;;;;;28.83;16.42;;;7.00;99.90;;;;;;5033794;28;20025;-65
2021/12/15 01:38:10;;;;;;;30.60;16.83;;;6.90;99.90;;;;;;5033881;28;20033;-68
2021/12/15 01:40:40;;;;;;;27.27;17.13;;;6.80;99.90;;;;;;5033533;28;20033;-58
2021/12/15 01:43:16;;;;;;;26.38;15.93;;;6.80;99.90;;;;;;5034148;28;20028;-60
2021/12/15 01:48:28;;;;;;;29.83;17.20;;;6.90;99.90;;;;;;5033127;28;20032;-56
2021/12/15 01:50:55;;;;;;;31.33;17.70;;;6.90;99.90;;;;;;5034102;28;20029;-54
2021/12/15 01:53:21;;;;;;;27.40;16.38;;;6.90;99.90;;;;;;5048561;28;20036;-57
2021/12/15 01:55:48;;;;;;;29.23;16.98;;;6.90;99.90;;;;;;5033550;28;20026;-56
2021/12/15 01:58:13;;;;;;;28.60;16.20;;;6.70;99.90;;;;;;5033736;28;20048;-59
2021/12/15 02:00:46;;;;;;;31.23;17.17;;;6.80;99.90;;;;;;5032742;28;20041;-61
2021/12/15 02:03:12;;;;;;;28.60;16.83;;;6.90;99.90;;;;;;5033790;28;20084;-62
2021/12/15 02:05:38;;;;;;;32.55;17.48;;;6.90;99.90;;;;;;5033007;28;20467;-59
2021/12/15 02:08:05;;;;;;;25.13;16.17;;;7.00;99.90;;;;;;5033630;28;20036;-56
2021/12/15 02:10:35;;;;;;;28.25;16.75;;;7.00;99.90;;;;;;5032992;28;20029;-55
2021/12/15 02:13:04;;;;;;;30.80;18.05;;;6.90;99.90;;;;;;5033425;28;20538;-58
2021/12/15 02:15:34;;;;;;;28.90;16.55;;;7.00;99.90;;;;;;5032938;28;20029;-58
2021/12/15 02:18:02;;;;;;;31.55;17.73;;;7.10;99.90;;;;;;5033485;28;20075;-58
2021/12/15 02:20:40;;;;;;;28.08;17.52;;;7.10;99.90;;;;;;5031519;28;20021;-60
2021/12/15 02:23:10;;;;;;;27.75;16.73;;;7.20;99.90;;;;;;5033397;28;20458;-59
2021/12/15 02:25:36;;;;;;;29.13;17.40;;;7.10;99.90;;;;;;5032665;28;20026;-62
2021/12/15 02:28:03;;;;;;;29.35;16.83;;;7.10;99.90;;;;;;5032927;28;20090;-58
2021/12/15 02:38:13;;;;;;;32.22;16.92;;;6.80;99.90;;;;;;5032823;28;20036;-62
2021/12/15 02:40:39;;;;;;;32.33;18.35;;;6.90;99.90;;;;;;5032187;28;20026;-62
2021/12/15 02:43:06;;;;;;;30.73;18.80;;;6.90;99.90;;;;;;5031459;28;20454;-60
2021/12/15 02:45:32;;;;;;;31.70;17.95;;;7.00;99.90;;;;;;5032149;28;20485;-57
2021/12/15 02:47:58;;;;;;;27.80;17.38;;;7.00;99.90;;;;;;5032619;28;20030;-62
2021/12/15 02:50:27;;;;;;;30.23;17.70;;;7.00;99.90;;;;;;5032458;28;20033;-67
2021/12/15 02:52:54;;;;;;;32.53;18.13;;;7.10;99.90;;;;;;5032832;28;20418;-59
2021/12/15 02:55:21;;;;;;;34.78;18.70;;;7.10;99.90;;;;;;5032494;28;20025;-56
2021/12/15 02:57:49;;;;;;;30.33;17.17;;;7.00;99.90;;;;;;5032534;28;20030;-58
2021/12/15 03:00:23;;;;;;;34.55;19.45;;;7.00;99.90;;;;;;5031132;28;20395;-53
2021/12/15 03:05:38;;;;;;;32.53;17.35;;;7.00;99.90;;;;;;5032382;28;20124;-73
2021/12/15 03:16:00;;;;;;;29.90;17.67;;;7.00;99.90;;;;;;5032541;28;20109;-57
2021/12/15 03:18:28;;;;;;;28.95;17.50;;;6.90;99.90;;;;;;5031376;28;20450;-64
2021/12/15 03:20:58;;;;;;;27.98;15.95;;;6.90;99.90;;;;;;5032022;28;20045;-55
2021/12/15 03:23:38;;;;;;;28.25;16.65;;;6.90;99.90;;;;;;5031590;28;20425;-70
2021/12/15 03:26:05;;;;;;;26.42;16.45;;;7.00;99.90;;;;;;5032299;28;20105;-55
2021/12/15 03:34:26;;;;;;;29.65;16.90;;;6.80;99.90;;;;;;5032209;28;20335;-58
2021/12/15 03:39:30;;;;;;;25.90;16.58;;;6.90;99.90;;;;;;5031576;28;20030;-64
2021/12/15 03:42:04;;;;;;;28.35;15.80;;;6.90;99.90;;;;;;5031955;28;20470;-62
2021/12/15 03:44:36;;;;;;;24.60;16.42;;;7.00;99.90;;;;;;5031482;28;20103;-62
2021/12/15 03:47:06;;;;;;;24.75;16.25;;;6.90;99.90;;;;;;5028293;28;20032;-58
2021/12/15 03:49:32;;;;;;;25.42;15.57;;;7.00;99.90;;;;;;5031183;28;20044;-61
2021/12/15 03:51:58;;;;;;;22.00;15.10;;;6.90;99.90;;;;;;5031456;28;20021;-59
2021/12/15 03:54:24;;;;;;;25.35;15.48;;;7.00;99.90;;;;;;5031850;28;20026;-53
2021/12/15 03:56:50;;;;;;;23.40;14.77;;;6.90;99.90;;;;;;5029883;28;20029;-61
2021/12/15 03:59:18;;;;;;;25.60;17.23;;;6.90;99.90;;;;;;5030481;28;20124;-54
2021/12/15 04:01:44;;;;;;;22.58;14.70;;;7.00;99.90;;;;;;5030812;28;20379;-54
2021/12/15 04:04:09;;;;;;;24.85;15.68;;;6.90;99.90;;;;;;5031628;28;20025;-61
2021/12/15 04:06:39;;;;;;;23.02;15.38;;;6.80;99.90;;;;;;5031073;28;20045;-64
2021/12/15 04:09:07;;;;;;;24.33;14.32;;;6.70;99.90;;;;;;5032003;28;20033;-65
2021/12/15 04:11:34;;;;;;;24.15;15.68;;;6.80;99.90;;;;;;5031113;28;20481;-63
2021/12/15 04:14:04;;;;;;;24.23;15.38;;;6.70;99.90;;;;;;5031658;28;20017;-65
2021/12/15 04:18:55;;;;;;;26.75;16.10;;;6.60;99.90;;;;;;5031405;28;20049;-59
2021/12/15 04:21:21;;;;;;;24.40;15.45;;;6.60;99.90;;;;;;5031210;28;20026;-53
2021/12/15 04:23:52;;;;;;;24.75;15.00;;;6.60;99.90;;;;;;5030702;28;20213;-53
2021/12/15 04:26:18;;;;;;;23.30;14.52;;;6.60;99.90;;;;;;5030910;28;20033;-63
2021/12/15 04:28:44;;;;;;;23.02;14.82;;;6.60;99.90;;;;;;5030440;28;20044;-65
2021/12/15 04:31:14;;;;;;;23.70;15.85;;;6.70;99.90;;;;;;5031331;28;20030;-65
2021/12/15 04:33:49;;;;;;;25.33;16.75;;;6.70;99.90;;;;;;5029447;28;20416;-62
2021/12/15 04:36:15;;;;;;;22.42;13.88;;;6.70;99.90;;;;;;5030116;28;20071;-64
2021/12/15 04:38:42;;;;;;;21.23;13.73;;;6.70;99.90;;;;;;5030514;28;20029;-57
2021/12/15 04:41:16;;;;;;;23.73;15.48;;;6.50;99.90;;;;;;5031301;28;20033;-60
2021/12/15 04:43:42;;;;;;;22.23;14.75;;;6.50;99.90;;;;;;5030632;28;20100;-65
2021/12/15 04:46:11;;;;;;;25.45;15.80;;;6.50;99.90;;;;;;5029952;28;20463;-62
2021/12/15 04:48:39;;;;;;;23.77;15.20;;;6.60;99.90;;;;;;5030370;28;20112;-66
2021/12/15 04:51:06;;;;;;;24.38;15.98;;;6.60;99.90;;;;;;5030897;28;20325;-57
2021/12/15 04:53:33;;;;;;;23.17;15.00;;;6.60;99.90;;;;;;5029249;28;20029;-63
2021/12/15 04:55:59;;;;;;;25.48;15.20;;;6.70;99.90;;;;;;5030688;28;20022;-65
2021/12/15 04:58:24;;;;;;;23.58;15.35;;;6.70;99.90;;;;;;5031140;28;20040;-62
2021/12/15 05:00:59;;;;;;;26.60;17.85;;;6.60;99.90;;;;;;5033932;28;20041;-61
2021/12/15 05:03:25;;;;;;;27.00;16.75;;;6.60;99.90;;;;;;5034856;28;20083;-55
2021/12/15 05:05:51;;;;;;;25.10;17.15;;;6.60;99.90;;;;;;5034081;28;20029;-64
2021/12/15 05:08:17;;;;;;;23.95;14.75;;;6.60;99.90;;;;;;5034151;28;20033;-59
2021/12/15 05:10:43;;;;;;;27.58;17.48;;;6.70;99.90;;;;;;5034189;28;20052;-61
2021/12/15 05:13:10;;;;;;;28.40;17.33;;;6.50;99.90;;;;;;5034587;28;20541;-60
2021/12/15 05:15:36;;;;;;;25.90;15.95;;;6.50;99.90;;;;;;5034025;28;20021;-62
2021/12/15 05:18:04;;;;;;;23.88;14.95;;;6.60;99.90;;;;;;5033016;28;20036;-60
2021/12/15 05:20:30;;;;;;;27.23;15.90;;;6.70;99.90;;;;;;5034284;28;20037;-60
2021/12/15 05:22:55;;;;;;;28.38;16.45;;;6.80;99.90;;;;;;5033517;28;20025;-61
2021/12/15 05:25:21;;;;;;;24.52;15.60;;;6.70;99.90;;;;;;5034242;28;20113;-60
2021/12/15 05:27:47;;;;;;;30.92;16.48;;;6.70;99.90;;;;;;5033082;28;20034;-60
2021/12/15 05:30:17;;;;;;;28.25;17.38;;;6.50;99.90;;;;;;5032415;28;20391;-60
2021/12/15 05:32:43;;;;;;;25.10;15.80;;;6.60;99.90;;;;;;5033261;28;20088;-58
2021/12/15 05:35:10;;;;;;;29.42;16.67;;;6.60;99.90;;;;;;5033976;28;20057;-61
2021/12/15 05:37:37;;;;;;;24.25;15.77;;;6.70;99.90;;;;;;5033266;28;20034;-61
2021/12/15 05:40:05;;;;;;;23.40;15.57;;;6.80;99.90;;;;;;5032456;28;20458;-60
2021/12/15 05:42:30;;;;;;;25.48;16.13;;;6.80;99.90;;;;;;5033838;28;20033;-60
2021/12/15 05:44:56;;;;;;;29.90;17.17;;;6.80;99.90;;;;;;5033279;28;20087;-60
2021/12/15 05:47:25;;;;;;;30.08;17.30;;;6.80;99.90;;;;;;5033901;28;20450;-60
2021/12/15 05:49:51;;;;;;;26.17;16.50;;;6.70;99.90;;;;;;5033150;28;20029;-58
2021/12/15 05:52:17;;;;;;;30.55;17.55;;;6.60;99.90;;;;;;5032383;28;20026;-59
2021/12/15 05:54:43;;;;;;;25.75;16.25;;;6.60;99.90;;;;;;5031726;28;20364;-61
2021/12/15 05:57:09;;;;;;;28.88;17.92;;;6.50;99.90;;;;;;5033623;28;20100;-60
2021/12/15 05:59:35;;;;;;;28.73;16.20;;;6.60;99.90;;;;;;5031463;28;20092;-61
2021/12/15 06:02:01;;;;;;;29.05;17.38;;;6.70;99.90;;;;;;5033240;28;20033;-60
2021/12/15 06:04:27;;;;;;;27.30;17.00;;;6.70;99.90;;;;;;5033619;28;20103;-60
2021/12/15 06:06:53;;;;;;;28.52;17.17;;;6.80;99.90;;;;;;5032421;28;20490;-61
2021/12/15 06:09:18;;;;;;;29.85;17.40;;;6.90;99.90;;;;;;5033230;28;20118;-61
2021/12/15 06:11:49;;;;;;;30.63;17.33;;;6.80;99.90;;;;;;5031525;28;20030;-60
2021/12/15 06:14:23;;;;;;;28.10;16.67;;;6.90;99.90;;;;;;5033565;28;20463;-61
2021/12/15 06:16:50;;;;;;;30.63;15.60;;;6.90;99.90;;;;;;5032769;28;20036;-61
2021/12/15 06:19:16;;;;;;;30.08;17.25;;;6.90;99.90;;;;;;5031608;28;20128;-60
2021/12/15 06:21:42;;;;;;;27.90;16.52;;;7.00;99.90;;;;;;5032466;28;20113;-60
2021/12/15 06:24:07;;;;;;;24.83;15.07;;;6.90;99.90;;;;;;5031912;28;20061;-61
2021/12/15 06:26:34;;;;;;;29.40;16.85;;;7.00;99.90;;;;;;5032763;28;20037;-60
2021/12/15 06:29:00;;;;;;;27.25;17.05;;;7.00;99.90;;;;;;5032695;28;20044;-60
2021/12/15 06:31:26;;;;;;;26.88;16.80;;;6.90;99.90;;;;;;5031543;28;20033;-60
2021/12/15 06:33:51;;;;;;;27.85;17.27;;;6.90;99.90;;;;;;5031099;28;20386;-60
2021/12/15 06:36:21;;;;;;;27.30;17.73;;;6.90;99.90;;;;;;5032598;28;20038;-61
2021/12/15 06:38:49;;;;;;;28.75;16.42;;;6.90;99.90;;;;;;5031825;28;20026;-61
2021/12/15 06:41:16;;;;;;;29.70;16.80;;;6.90;99.90;;;;;;5032296;28;20026;-60
2021/12/15 06:43:46;;;;;;;25.48;16.17;;;6.90;99.90;;;;;;5031523;28;20025;-62
2021/12/15 06:59:47;;;;;;;29.13;16.88;;;7.10;99.90;;;;;;5031663;28;20036;-61
2021/12/15 07:02:15;;;;;;;28.45;17.80;;;7.00;99.90;;;;;;5031637;28;20387;-61
2021/12/15 07:04:40;;;;;;;29.50;17.65;;;6.80;99.90;;;;;;5030890;28;20025;-61
2021/12/15 07:07:06;;;;;;;25.80;16.55;;;6.80;99.90;;;;;;5030464;28;20116;-62
2021/12/15 07:09:33;;;;;;;27.85;17.00;;;6.90;99.90;;;;;;5031692;28;20033;-61
2021/12/15 07:12:00;;;;;;;27.48;16.30;;;6.90;99.90;;;;;;5029491;28;20034;-61
2021/12/15 07:14:26;;;;;;;27.75;17.48;;;6.80;99.90;;;;;;5029824;28;20029;-61
2021/12/15 07:16:54;;;;;;;25.10;15.63;;;6.80;99.90;;;;;;5029407;28;20482;-60
2021/12/15 07:22:08;;;;;;;29.98;18.45;;;7.00;99.90;;;;;;5030736;28;20048;-61
2021/12/15 07:24:36;;;;;;;25.85;16.50;;;6.90;99.90;;;;;;5031438;28;20028;-62
2021/12/15 07:27:04;;;;;;;26.20;17.10;;;7.00;99.90;;;;;;5030477;28;20052;-70
2021/12/15 07:29:31;;;;;;;26.70;17.63;;;7.00;99.90;;;;;;5031252;28;20379;-61
2021/12/15 07:31:57;;;;;;;28.52;17.48;;;6.90;99.90;;;;;;5030833;28;20157;-61
2021/12/15 07:34:23;;;;;;;31.13;17.42;;;6.90;99.90;;;;;;5031226;28;20030;-61
2021/12/15 07:36:49;;;;;;;27.13;17.58;;;7.00;99.90;;;;;;5030348;28;20036;-61
2021/12/15 07:39:15;;;;;;;28.85;17.77;;;7.00;99.90;;;;;;5031133;28;20064;-63
2021/12/15 07:41:50;;;;;;;26.30;17.05;;;7.00;99.90;;;;;;5030848;28;20030;-61
2021/12/15 07:44:18;;;;;;;30.95;18.75;;;7.00;99.90;;;;;;5031601;28;20053;-64
2021/12/15 07:46:46;;;;;;;31.88;17.85;;;6.90;99.90;;;;;;5030509;28;20029;-61
2021/12/15 07:49:13;;;;;;;30.77;17.45;;;6.90;99.90;;;;;;5031256;28;20181;-61
2021/12/15 07:51:41;;;;;;;30.13;18.80;;;7.00;99.90;;;;;;5031038;28;20371;-61
2021/12/15 07:54:07;;;;;;;29.60;18.35;;;7.10;99.90;;;;;;5031109;28;20026;-61
2021/12/15 07:56:33;;;;;;;32.38;18.58;;;6.90;99.90;;;;;;5031088;28;20095;-61
2021/12/15 07:58:58;;;;;;;28.20;18.23;;;6.90;99.90;;;;;;5028907;28;20034;-60
2021/12/15 08:01:24;;;;;;;31.15;18.52;;;6.90;99.90;;;;;;5031119;28;20030;-56
2021/12/15 08:03:54;;;;;;;31.95;19.05;;;6.80;99.90;;;;;;5030334;28;20096;-61
2021/12/15 08:06:24;;;;;;;34.80;19.58;;;6.80;99.90;;;;;;5030814;28;20379;-62
2021/12/15 08:08:51;;;;;;;31.98;17.17;;;6.80;99.90;;;;;;5030651;28;20059;-65
2021/12/15 08:11:16;;;;;;;34.33;18.80;;;6.90;99.90;;;;;;5031125;28;20025;-62
2021/12/15 08:13:42;;;;;;;28.98;17.77;;;6.90;99.90;;;;;;5028883;28;20033;-63
2021/12/15 08:16:08;;;;;;;37.83;21.30;;;7.00;99.90;;;;;;5029766;28;20029;-61
2021/12/15 08:18:34;;;;;;;32.70;19.23;;;7.00;99.90;;;;;;5029633;28;20483;-61
2021/12/15 08:21:03;;;;;;;38.40;21.23;;;7.00;99.90;;;;;;5029998;28;20033;-61
2021/12/15 08:23:29;;;;;;;33.17;19.55;;;6.80;99.90;;;;;;5031129;28;20419;-61
2021/12/15 08:25:55;;;;;;;31.52;18.45;;;6.80;99.90;;;;;;5030419;28;20060;-61
2021/12/15 08:28:21;;;;;;;33.60;18.98;;;6.90;99.90;;;;;;5031125;28;20385;-63
2021/12/15 08:30:48;;;;;;;33.83;18.70;;;6.90;99.90;;;;;;5029873;28;20117;-62
2021/12/15 08:33:19;;;;;;;32.40;18.70;;;7.00;99.90;;;;;;5031250;28;20536;-61
2021/12/15 08:36:06;;;;;;;37.92;20.25;;;7.00;99.90;;;;;;5032809;28;20057;-62
2021/12/15 08:38:34;;;;;;;32.63;19.52;;;7.10;99.90;;;;;;5034129;28;20503;-62
2021/12/15 08:41:03;;;;;;;34.28;19.65;;;7.10;99.90;;;;;;5032647;28;20068;-65
2021/12/15 08:43:29;;;;;;;33.42;18.23;;;7.00;99.90;;;;;;5033204;28;20036;-62
2021/12/15 08:46:03;;;;;;;34.03;18.77;;;7.10;99.90;;;;;;5033753;28;20394;-63
2021/12/15 08:48:28;;;;;;;33.13;18.55;;;7.10;99.90;;;;;;5034198;28;20040;-62
2021/12/15 08:50:54;;;;;;;34.65;20.40;;;7.10;99.90;;;;;;5033554;28;20033;-61
2021/12/15 08:53:20;;;;;;;37.25;20.65;;;7.10;99.90;;;;;;5034287;28;20083;-61
2021/12/15 08:55:48;;;;;;;38.58;20.70;;;7.20;99.90;;;;;;5032369;28;20105;-62
2021/12/15 08:58:16;;;;;;;33.95;18.75;;;7.50;99.90;;;;;;5032857;28;20040;-61
2021/12/15 09:00:43;;;;;;;33.60;19.63;;;7.40;99.90;;;;;;5032340;28;20033;-61
2021/12/15 09:03:10;;;;;;;34.03;20.10;;;7.20;99.90;;;;;;5034270;28;20053;-60
2021/12/15 09:05:37;;;;;;;34.35;18.80;;;7.30;99.90;;;;;;5021432;28;20525;-61
2021/12/15 09:08:04;;;;;;;29.45;18.13;;;7.30;99.90;;;;;;5030901;28;20029;-63
2021/12/15 09:10:32;;;;;;;35.88;17.95;;;7.30;99.90;;;;;;5034627;28;20047;-62
2021/12/15 09:12:58;;;;;;;33.70;19.50;;;7.30;99.90;;;;;;5030260;28;20041;-62
2021/12/15 09:15:24;;;;;;;36.15;18.40;;;7.80;99.90;;;;;;5031701;28;20549;-63
2021/12/15 09:17:50;;;;;;;30.65;18.20;;;7.70;99.90;;;;;;5030907;28;20034;-64
2021/12/15 09:20:20;;;;;;;35.47;19.55;;;7.50;99.90;;;;;;5048240;28;20374;-62
2021/12/15 09:22:47;;;;;;;31.42;16.13;;;7.30;99.90;;;;;;5048466;28;20025;-64
2021/12/15 09:25:14;;;;;;;35.15;19.17;;;8.00;99.90;;;;;;5039517;28;20103;-59
2021/12/15 09:27:42;;;;;;;32.95;18.25;;;8.70;99.90;;;;;;5032654;28;20030;-59
2021/12/15 09:30:11;;;;;;;29.30;18.70;;;9.00;99.90;;;;;;5033283;28;20117;-62
2021/12/15 09:32:38;;;;;;;31.08;18.48;;;8.90;99.90;;;;;;5034164;28;20022;-62
2021/12/15 09:35:07;;;;;;;32.47;17.58;;;8.60;99.90;;;;;;5031635;28;20108;-70
2021/12/15 09:37:33;;;;;;;29.77;19.33;;;8.10;99.90;;;;;;5033210;28;20041;-61
2021/12/15 09:39:58;;;;;;;32.72;18.80;;;7.90;99.90;;;;;;5032728;28;20030;-60
2021/12/15 09:42:32;;;;;;;35.78;19.67;;;7.70;99.90;;;;;;5032172;28;20033;-60
2021/12/15 09:45:15;;;;;;;33.10;18.38;;;7.70;99.90;;;;;;5031054;28;20056;-62
2021/12/15 09:48:07;;;;;;;32.63;19.58;;;7.70;99.90;;;;;;5032205;28;20030;-61
2021/12/15 10:04:46;;;;;;;34.60;18.55;;;7.80;99.90;;;;;;5030569;28;20120;-62
2021/12/15 10:21:23;;;;;;;39.10;19.83;;;7.90;99.90;;;;;;5032309;28;20112;-61
2021/12/15 10:23:51;;;;;;;39.55;19.15;;;7.90;99.90;;;;;;5047292;28;20030;-74
2021/12/15 10:26:17;;;;;;;29.58;18.27;;;8.00;99.90;;;;;;5029221;28;20021;-61
2021/12/15 10:28:48;;;;;;;29.98;18.58;;;8.10;99.90;;;;;;5031160;28;20456;-61
2021/12/15 10:31:17;;;;;;;30.80;19.20;;;8.10;99.90;;;;;;5032887;28;20026;-62
2021/12/15 10:33:55;;;;;;;30.88;19.73;;;8.20;99.90;;;;;;5031642;28;20033;-55
2021/12/15 10:36:28;;;;;;;35.35;19.90;;;8.20;99.90;;;;;;5029790;28;20044;-64
2021/12/15 10:39:04;;;;;;;36.92;19.63;;;8.30;99.90;;;;;;5030369;28;20124;-63
2021/12/15 10:41:33;;;;;;;33.22;17.98;;;8.20;99.90;;;;;;5031400;28;20060;-67
2021/12/15 10:44:14;;;;;;;33.95;19.45;;;8.20;99.90;;;;;;5029314;28;20426;-61
2021/12/15 10:47:07;;;;;;;33.70;18.27;;;8.20;99.90;;;;;;5032451;28;20187;-61
2021/12/15 10:49:39;;;;;;;29.35;18.08;;;8.20;99.90;;;;;;5027833;28;20510;-64
2021/12/15 10:52:11;;;;;;;30.50;18.30;;;8.30;99.90;;;;;;5031285;28;20026;-60
2021/12/15 10:54:40;;;;;;;29.95;18.00;;;8.30;99.90;;;;;;5031898;28;20495;-61
2021/12/15 10:57:09;;;;;;;31.05;19.38;;;8.40;99.90;;;;;;5029778;28;20455;-62
2021/12/15 10:59:48;;;;;;;33.08;19.75;;;8.40;99.90;;;;;;5030483;28;20364;-61
2021/12/15 11:02:21;;;;;;;28.55;17.77;;;8.50;99.90;;;;;;5046456;28;20026;-61
2021/12/15 11:04:49;;;;;;;29.13;18.40;;;8.50;99.90;;;;;;5028055;28;20093;-62
2021/12/15 11:07:23;;;;;;;27.60;17.25;;;8.50;99.90;;;;;;5030710;28;20029;-63
2021/12/15 11:10:17;;;;;;;28.60;16.17;;;8.70;99.90;;;;;;5030334;28;20029;-61
2021/12/15 11:12:48;;;;;;;28.38;16.55;;;8.70;99.90;;;;;;5029751;28;20025;-60
2021/12/15 11:15:45;;;;;;;25.30;16.88;;;8.70;99.90;;;;;;5030585;28;20025;-61
2021/12/15 11:18:16;;;;;;;31.30;16.92;;;8.80;99.90;;;;;;5027903;28;20861;-61
2021/12/15 11:20:50;;;;;;;26.95;16.85;;;8.80;99.90;;;;;;5022826;28;20025;-64
2021/12/15 11:23:20;;;;;;;26.30;16.25;;;8.80;99.90;;;;;;5031634;28;20032;-64
2021/12/15 11:25:54;;;;;;;28.70;17.27;;;8.70;99.90;;;;;;5009329;28;20045;-62
2021/12/15 11:28:30;;;;;;;30.77;16.88;;;8.80;99.90;;;;;;5012564;28;20041;-64
2021/12/15 11:31:04;;;;;;;24.20;15.98;;;8.80;99.90;;;;;;5031741;28;20140;-63
2021/12/15 11:33:48;;;;;;;33.22;17.30;;;8.80;99.90;;;;;;5029003;28;20057;-63
2021/12/15 11:36:17;;;;;;;30.00;17.05;;;8.90;99.90;;;;;;5027795;28;20209;-62
2021/12/15 11:38:57;;;;;;;32.65;17.63;;;8.90;99.90;;;;;;5022230;28;20431;-61
2021/12/15 11:41:31;;;;;;;27.80;18.00;;;8.90;99.90;;;;;;5046097;28;20383;-61
2021/12/15 11:44:06;;;;;;;27.73;16.27;;;8.80;99.90;;;;;;5028076;28;20022;-64
2021/12/15 11:46:41;;;;;;;33.00;17.17;;;8.90;99.90;;;;;;5029982;28;20041;-56
2021/12/15 11:49:15;;;;;;;24.40;16.10;;;9.20;99.90;;;;;;5030511;28;20076;-63
2021/12/15 11:51:43;;;;;;;35.20;17.33;;;9.30;99.90;;;;;;5030593;28;20359;-65
2021/12/15 11:54:18;;;;;;;27.30;16.45;;;9.40;99.90;;;;;;5029760;28;20144;-62
2021/12/15 11:56:46;;;;;;;25.50;16.75;;;9.50;99.90;;;;;;5025376;28;20041;-63
2021/12/15 11:59:18;;;;;;;26.67;17.85;;;9.70;99.90;;;;;;5027828;28;20065;-62
2021/12/15 12:01:49;;;;;;;31.48;18.02;;;10.00;99.90;;;;;;5031383;28;20030;-63
2021/12/15 12:04:15;;;;;;;26.52;15.82;;;10.20;99.90;;;;;;5029583;28;20173;-63
2021/12/15 12:06:40;;;;;;;25.10;16.98;;;10.40;99.90;;;;;;5028563;28;20026;-65
2021/12/15 12:09:06;;;;;;;28.17;16.35;;;10.40;99.90;;;;;;5028918;28;20119;-61
2021/12/15 12:11:34;;;;;;;19.25;12.95;;;10.70;99.90;;;;;;5031920;28;20044;-61
2021/12/15 12:14:00;;;;;;;18.42;12.93;;;11.10;99.90;;;;;;5027744;28;20109;-64
2021/12/15 12:16:27;;;;;;;16.88;12.02;;;11.10;99.90;;;;;;5020637;28;20029;-63
2021/12/15 12:18:55;;;;;;;19.48;13.40;;;11.20;99.90;;;;;;5034044;28;20060;-60
2021/12/15 12:21:22;;;;;;;20.65;13.00;;;11.10;99.90;;;;;;5033273;28;20037;-63
2021/12/15 12:23:49;;;;;;;19.80;13.43;;;10.90;99.90;;;;;;5025501;28;20085;-61
2021/12/15 12:26:17;;;;;;;18.02;12.27;;;10.80;99.90;;;;;;5030188;28;20036;-61
2021/12/15 12:28:46;;;;;;;20.60;12.82;;;11.10;99.90;;;;;;5033229;28;20033;-61
2021/12/15 12:31:23;;;;;;;18.83;12.73;;;12.10;99.90;;;;;;5033082;28;20463;-62
2021/12/15 12:33:49;;;;;;;16.02;11.45;;;12.40;99.90;;;;;;5033743;28;20037;-61
2021/12/15 12:36:19;;;;;;;16.70;10.85;;;12.40;99.90;;;;;;5033455;28;20021;-62
2021/12/15 12:38:51;;;;;;;15.93;10.43;;;12.00;99.90;;;;;;5033886;28;20481;-61
2021/12/15 12:41:27;;;;;;;17.90;12.07;;;11.50;99.90;;;;;;5014130;28;20045;-61
2021/12/15 12:43:57;;;;;;;17.73;10.57;;;11.40;99.90;;;;;;5034166;28;20026;-62
2021/12/15 12:46:38;;;;;;;21.15;10.93;;;11.00;99.90;;;;;;5032666;28;20025;-61
2021/12/15 12:59:21;;;;;;;23.55;11.73;;;10.90;99.90;;;;;;5033625;28;20107;-60
2021/12/15 13:00:51;;;;;;;17.67;10.20;;;11.10;99.90;;;;;;5033715;28;20044;-58
2021/12/15 13:03:34;;;;;;;15.32;8.73;;;12.10;99.90;;;;;;5031786;28;20077;-60
2021/12/15 13:06:02;;;;;;;10.73;6.53;;;12.40;99.90;;;;;;5033375;28;20056;-62
2021/12/15 13:08:43;;;;;;;13.70;7.50;;;12.10;99.90;;;;;;5033342;28;20116;-62
2021/12/15 13:11:22;;;;;;;12.95;8.45;;;11.00;99.90;;;;;;5032831;28;20107;-62
2021/12/15 13:14:06;;;;;;;13.18;7.32;;;10.50;99.90;;;;;;5033094;28;20355;-61
2021/12/15 13:16:48;;;;;;;10.75;7.25;;;10.30;99.90;;;;;;5033062;28;20038;-61
2021/12/15 13:19:14;;;;;;;16.60;8.57;;;10.10;99.90;;;;;;5032822;28;20042;-61
2021/12/15 13:21:50;;;;;;;11.85;8.13;;;9.70;99.90;;;;;;5033854;28;20033;-61
2021/12/15 13:30:49;;;;;;;11.57;7.22;;;9.50;99.90;;;;;;5019015;28;20133;-63
2021/12/15 13:33:58;;;;;;;11.57;6.30;;;9.50;99.90;;;;;;5011427;28;20380;-62
2021/12/15 13:36:55;;;;;;;16.30;8.15;;;9.30;99.90;;;;;;5024099;28;20505;-62
2021/12/15 13:39:21;;;;;;;13.90;9.05;;;9.20;99.90;;;;;;5031345;28;20049;-69
2021/12/15 13:44:35;;;;;;;12.93;8.93;;;9.30;99.90;;;;;;5033531;28;20112;-61
2021/12/15 13:47:15;;;;;;;15.05;9.13;;;9.20;99.90;;;;;;5031257;28;20124;-74
2021/12/15 13:49:54;;;;;;;14.50;8.85;;;9.10;99.90;;;;;;5033228;28;20022;-66
2021/12/15 13:52:39;;;;;;;14.95;8.30;;;9.20;99.90;;;;;;5032016;28;20214;-61
2021/12/15 13:55:28;;;;;;;12.88;7.88;;;9.30;99.90;;;;;;5030248;28;20034;-62
2021/12/15 13:58:09;;;;;;;12.88;8.70;;;9.30;99.90;;;;;;5032585;28;20037;-61
2021/12/15 14:00:42;;;;;;;14.60;9.05;;;9.20;99.90;;;;;;5032449;28;20463;-61
2021/12/15 14:03:19;;;;;;;15.60;8.63;;;9.40;99.90;;;;;;5030450;28;20036;-61
2021/12/15 14:05:53;;;;;;;11.32;8.82;;;9.20;99.90;;;;;;5032940;28;20025;-60
2021/12/15 14:08:29;;;;;;;15.10;8.90;;;9.10;99.90;;;;;;5031739;28;20466;-61
2021/12/15 14:11:21;;;;;;;13.80;8.43;;;9.10;99.90;;;;;;5032642;28;20061;-60
2021/12/15 14:14:22;;;;;;;11.18;8.15;;;9.20;99.90;;;;;;5032238;28;20048;-61
2021/12/15 14:16:54;;;;;;;13.52;8.18;;;9.30;99.90;;;;;;5030263;28;20041;-61
2021/12/15 14:19:29;;;;;;;16.08;9.15;;;9.10;99.90;;;;;;5032025;28;20437;-61
2021/12/15 14:22:08;;;;;;;13.20;8.50;;;9.10;99.90;;;;;;5032852;28;20036;-61
2021/12/15 14:24:35;;;;;;;16.70;9.68;;;9.00;99.90;;;;;;5031836;28;20548;-64
2021/12/15 14:27:01;;;;;;;12.73;8.77;;;9.00;99.90;;;;;;5031960;28;20421;-61
2021/12/15 14:29:29;;;;;;;16.10;10.02;;;9.00;99.90;;;;;;5031877;28;20450;-62